createdAt,value
2017-03-02T00:00:15.894Z,997.21
2017-03-02T00:01:26.026Z,997.21
2017-03-02T00:02:35.048Z,997.19
2017-03-02T00:03:43.971Z,997.21
2017-03-02T00:04:53.317Z,997.18
2017-03-02T00:06:03.047Z,997.24
2017-03-02T00:07:12.776Z,997.23
2017-03-02T00:08:22.555Z,997.25
2017-03-02T00:09:32.298Z,997.21
2017-03-02T00:10:42.858Z,997.27
2017-03-02T00:11:52.612Z,997.27
2017-03-02T00:13:02.762Z,997.24
2017-03-02T00:14:12.251Z,997.25
2017-03-02T00:15:22.405Z,997.22
2017-03-02T00:16:32.183Z,997.2
2017-03-02T00:17:41.920Z,997.26
2017-03-02T00:18:51.244Z,997.14
2017-03-02T00:20:00.968Z,997.18
2017-03-02T00:21:10.284Z,997.14
2017-03-02T00:22:19.624Z,997.18
2017-03-02T00:23:28.955Z,997.09
2017-03-02T00:24:38.272Z,997.12
2017-03-02T00:25:48.513Z,997.06
2017-03-02T00:26:58.653Z,997.06
2017-03-02T00:28:08.020Z,997.06
2017-03-02T00:29:17.338Z,997.07
2017-03-02T00:30:27.065Z,997.05
2017-03-02T00:31:36.585Z,997.08
2017-03-02T00:32:46.310Z,997.12
2017-03-02T00:33:55.226Z,997.11
2017-03-02T00:35:04.968Z,997.14
2017-03-02T00:36:15.536Z,997.11
2017-03-02T00:37:25.334Z,997.11
2017-03-02T00:38:35.088Z,997.11
2017-03-02T00:39:44.831Z,997.06
2017-03-02T00:40:54.569Z,997.08
2017-03-02T00:42:04.304Z,997.08
2017-03-02T00:43:14.555Z,997.01
2017-03-02T00:44:23.495Z,997.1
2017-03-02T00:45:34.049Z,997.08
2017-03-02T00:46:43.401Z,997.08
2017-03-02T00:47:52.753Z,997.05
2017-03-02T00:49:02.402Z,997.07
2017-03-02T00:50:12.568Z,997.03
2017-03-02T00:51:21.898Z,997.02
2017-03-02T00:52:31.649Z,996.99
2017-03-02T00:53:41.830Z,996.99
2017-03-02T00:54:51.979Z,997.02
2017-03-02T00:56:02.129Z,997
2017-03-02T00:57:12.317Z,996.92
2017-03-02T00:58:22.075Z,996.93
2017-03-02T00:59:31.414Z,996.95
2017-03-02T01:00:40.844Z,996.93
2017-03-02T01:01:51.017Z,996.89
2017-03-02T01:03:01.188Z,996.89
2017-03-02T01:04:11.328Z,996.9
2017-03-02T01:05:21.494Z,996.85
2017-03-02T01:06:30.885Z,996.83
2017-03-02T01:07:40.613Z,996.83
2017-03-02T01:08:49.540Z,996.84
2017-03-02T01:09:58.873Z,996.84
2017-03-02T01:11:09.021Z,996.83
2017-03-02T01:12:18.136Z,996.83
2017-03-02T01:13:27.878Z,996.83
2017-03-02T01:14:37.642Z,996.82
2017-03-02T01:15:47.373Z,996.84
2017-03-02T01:16:57.925Z,996.84
2017-03-02T01:18:07.731Z,996.84
2017-03-02T01:19:16.653Z,996.84
2017-03-02T01:20:25.977Z,996.8
2017-03-02T01:21:35.319Z,996.75
2017-03-02T01:22:44.244Z,996.76
2017-03-02T01:23:53.717Z,996.77
2017-03-02T01:25:03.044Z,996.78
2017-03-02T01:26:12.397Z,996.73
2017-03-02T01:27:22.540Z,996.74
2017-03-02T01:28:32.684Z,996.72
2017-03-02T01:29:41.671Z,996.68
2017-03-02T01:30:51.419Z,996.69
2017-03-02T01:32:01.151Z,996.69
2017-03-02T01:33:10.884Z,996.65
2017-03-02T01:34:20.621Z,996.66
2017-03-02T01:35:30.528Z,996.63
2017-03-02T01:36:39.849Z,996.62
2017-03-02T01:37:49.584Z,996.6
2017-03-02T01:38:58.916Z,996.57
2017-03-02T01:40:09.475Z,996.57
2017-03-02T01:41:19.378Z,996.54
2017-03-02T01:42:28.724Z,996.61
2017-03-02T01:43:38.467Z,996.54
2017-03-02T01:44:48.190Z,996.53
2017-03-02T01:45:57.109Z,996.51
2017-03-02T01:47:07.456Z,996.5
2017-03-02T01:48:16.803Z,996.51
2017-03-02T01:49:26.148Z,996.51
2017-03-02T01:50:35.941Z,996.53
2017-03-02T01:51:45.678Z,996.42
2017-03-02T01:52:55.060Z,996.44
2017-03-02T01:54:04.390Z,996.41
2017-03-02T01:55:14.133Z,996.39
2017-03-02T01:56:23.450Z,996.39
2017-03-02T01:57:32.791Z,996.39
2017-03-02T01:58:42.276Z,996.4
2017-03-02T01:59:52.433Z,996.35
2017-03-02T02:01:02.585Z,996.35
2017-03-02T02:02:12.319Z,996.37
2017-03-02T02:03:22.467Z,996.34
2017-03-02T02:04:32.623Z,996.3
2017-03-02T02:05:41.939Z,996.29
2017-03-02T02:06:50.868Z,996.29
2017-03-02T02:08:00.193Z,996.31
2017-03-02T02:09:09.526Z,996.3
2017-03-02T02:10:18.496Z,996.31
2017-03-02T02:11:27.818Z,996.3
2017-03-02T02:12:37.953Z,996.27
2017-03-02T02:13:47.717Z,996.31
2017-03-02T02:14:56.623Z,996.3
2017-03-02T02:16:06.762Z,996.33
2017-03-02T02:17:16.915Z,996.32
2017-03-02T02:18:27.456Z,996.32
2017-03-02T02:19:37.590Z,996.29
2017-03-02T02:20:47.314Z,996.32
2017-03-02T02:21:57.466Z,996.27
2017-03-02T02:23:06.789Z,996.3
2017-03-02T02:24:16.132Z,996.32
2017-03-02T02:25:26.312Z,996.26
2017-03-02T02:26:35.636Z,996.25
2017-03-02T02:27:46.242Z,996.31
2017-03-02T02:28:55.971Z,996.32
2017-03-02T02:30:05.707Z,996.33
2017-03-02T02:31:16.674Z,996.3
2017-03-02T02:32:25.995Z,996.34
2017-03-02T02:33:36.279Z,996.28
2017-03-02T02:34:46.822Z,996.33
2017-03-02T02:35:56.974Z,996.33
2017-03-02T02:37:07.552Z,996.3
2017-03-02T02:38:17.710Z,996.3
2017-03-02T02:39:27.110Z,996.26
2017-03-02T02:40:36.428Z,996.25
2017-03-02T02:41:46.620Z,996.24
2017-03-02T02:42:55.542Z,996.24
2017-03-02T02:44:05.688Z,996.26
2017-03-02T02:45:16.029Z,996.25
2017-03-02T02:46:25.785Z,996.25
2017-03-02T02:47:35.101Z,996.29
2017-03-02T02:48:45.230Z,996.23
2017-03-02T02:49:54.958Z,996.24
2017-03-02T02:51:04.864Z,996.26
2017-03-02T02:52:14.590Z,996.29
2017-03-02T02:53:24.741Z,996.19
2017-03-02T02:54:34.057Z,996.22
2017-03-02T02:55:44.185Z,996.25
2017-03-02T02:56:53.589Z,996.29
2017-03-02T02:58:02.907Z,996.24
2017-03-02T02:59:11.860Z,996.2
2017-03-02T03:00:22.414Z,996.27
2017-03-02T03:01:32.554Z,996.23
2017-03-02T03:02:42.294Z,996.19
2017-03-02T03:03:51.615Z,996.21
2017-03-02T03:05:01.374Z,996.19
2017-03-02T03:06:11.952Z,996.22
2017-03-02T03:07:21.675Z,996.22
2017-03-02T03:08:31.657Z,996.18
2017-03-02T03:09:41.411Z,996.22
2017-03-02T03:10:51.137Z,996.21
2017-03-02T03:12:01.284Z,996.22
2017-03-02T03:13:10.217Z,996.19
2017-03-02T03:14:19.631Z,996.27
2017-03-02T03:15:28.542Z,996.21
2017-03-02T03:16:37.907Z,996.23
2017-03-02T03:17:47.646Z,996.27
2017-03-02T03:18:57.385Z,996.26
2017-03-02T03:20:07.171Z,996.22
2017-03-02T03:21:16.487Z,996.21
2017-03-02T03:22:25.825Z,996.2
2017-03-02T03:23:35.141Z,996.15
2017-03-02T03:24:44.869Z,996.13
2017-03-02T03:25:55.384Z,996.15
2017-03-02T03:27:05.529Z,996.16
2017-03-02T03:28:14.845Z,996.16
2017-03-02T03:29:24.172Z,996.18
2017-03-02T03:30:33.504Z,996.17
2017-03-02T03:31:42.880Z,996.18
2017-03-02T03:32:51.830Z,996.13
2017-03-02T03:34:01.160Z,996.13
2017-03-02T03:35:10.894Z,996.18
2017-03-02T03:36:21.052Z,996.19
2017-03-02T03:37:30.534Z,996.16
2017-03-02T03:38:40.686Z,996.16
2017-03-02T03:39:49.608Z,996.15
2017-03-02T03:40:58.926Z,996.13
2017-03-02T03:42:09.078Z,996.16
2017-03-02T03:43:18.590Z,996.13
2017-03-02T03:44:27.908Z,996.13
2017-03-02T03:45:36.818Z,996.16
2017-03-02T03:46:46.542Z,996.16
2017-03-02T03:47:55.877Z,996.13
2017-03-02T03:49:06.169Z,996.05
2017-03-02T03:50:15.895Z,996.08
2017-03-02T03:51:25.217Z,996.03
2017-03-02T03:52:34.565Z,996.01
2017-03-02T03:53:43.887Z,996.01
2017-03-02T03:54:54.147Z,995.94
2017-03-02T03:56:03.482Z,995.93
2017-03-02T03:57:13.645Z,995.94
2017-03-02T03:58:23.414Z,995.96
2017-03-02T03:59:33.568Z,995.95
2017-03-02T04:00:43.215Z,995.95
2017-03-02T04:01:52.551Z,995.91
2017-03-02T04:03:03.090Z,995.92
2017-03-02T04:04:13.238Z,995.86
2017-03-02T04:05:22.972Z,995.79
2017-03-02T04:06:32.797Z,995.75
2017-03-02T04:07:42.129Z,995.77
2017-03-02T04:08:52.273Z,995.72
2017-03-02T04:10:01.604Z,995.76
2017-03-02T04:11:12.150Z,995.73
2017-03-02T04:12:21.625Z,995.72
2017-03-02T04:13:30.555Z,995.71
2017-03-02T04:14:40.743Z,995.73
2017-03-02T04:15:49.685Z,995.78
2017-03-02T04:16:59.452Z,995.72
2017-03-02T04:18:09.329Z,995.72
2017-03-02T04:19:19.053Z,995.67
2017-03-02T04:20:29.210Z,995.68
2017-03-02T04:21:38.945Z,995.66
2017-03-02T04:22:48.670Z,995.62
2017-03-02T04:23:58.949Z,995.64
2017-03-02T04:25:07.857Z,995.62
2017-03-02T04:26:17.588Z,995.64
2017-03-02T04:27:27.326Z,995.66
2017-03-02T04:28:37.074Z,995.64
2017-03-02T04:29:46.552Z,995.62
2017-03-02T04:30:55.883Z,995.61
2017-03-02T04:32:05.217Z,995.57
2017-03-02T04:33:14.551Z,995.61
2017-03-02T04:34:23.467Z,995.58
2017-03-02T04:35:33.269Z,995.55
2017-03-02T04:36:42.603Z,995.55
2017-03-02T04:37:52.357Z,995.54
2017-03-02T04:39:02.490Z,995.56
2017-03-02T04:40:11.452Z,995.54
2017-03-02T04:41:20.938Z,995.54
2017-03-02T04:42:29.861Z,995.56
2017-03-02T04:43:39.585Z,995.56
2017-03-02T04:44:48.942Z,995.57
2017-03-02T04:45:58.682Z,995.57
2017-03-02T04:47:08.563Z,995.58
2017-03-02T04:48:18.708Z,995.62
2017-03-02T04:49:28.871Z,995.62
2017-03-02T04:50:39.022Z,995.61
2017-03-02T04:51:48.340Z,995.6
2017-03-02T04:52:58.224Z,995.56
2017-03-02T04:54:07.548Z,995.57
2017-03-02T04:55:16.864Z,995.59
2017-03-02T04:56:26.595Z,995.58
2017-03-02T04:57:36.754Z,995.56
2017-03-02T04:58:47.322Z,995.59
2017-03-02T04:59:57.065Z,995.59
2017-03-02T05:01:07.260Z,995.61
2017-03-02T05:02:16.987Z,995.6
2017-03-02T05:03:26.722Z,995.57
2017-03-02T05:04:36.214Z,995.61
2017-03-02T05:05:45.544Z,995.58
2017-03-02T05:06:55.271Z,995.55
2017-03-02T05:08:05.018Z,995.54
2017-03-02T05:09:14.752Z,995.51
2017-03-02T05:10:24.179Z,995.42
2017-03-02T05:11:33.925Z,995.38
2017-03-02T05:12:42.855Z,995.3
2017-03-02T05:13:52.182Z,995.3
2017-03-02T05:15:02.334Z,995.29
2017-03-02T05:16:12.636Z,995.25
2017-03-02T05:17:21.565Z,995.36
2017-03-02T05:18:32.110Z,995.4
2017-03-02T05:19:42.285Z,995.39
2017-03-02T05:20:52.021Z,995.4
2017-03-02T05:22:01.493Z,995.38
2017-03-02T05:23:10.825Z,995.38
2017-03-02T05:24:19.788Z,995.35
2017-03-02T05:25:29.519Z,995.34
2017-03-02T05:26:38.899Z,995.33
2017-03-02T05:27:48.725Z,995.3
2017-03-02T05:28:58.504Z,995.35
2017-03-02T05:30:09.063Z,995.34
2017-03-02T05:31:17.985Z,995.34
2017-03-02T05:32:27.332Z,995.34
2017-03-02T05:33:36.896Z,995.35
2017-03-02T05:34:46.624Z,995.31
2017-03-02T05:35:55.535Z,995.26
2017-03-02T05:37:05.664Z,995.31
2017-03-02T05:38:14.985Z,995.33
2017-03-02T05:39:24.405Z,995.4
2017-03-02T05:40:33.326Z,995.41
2017-03-02T05:41:42.242Z,995.44
2017-03-02T05:42:52.381Z,995.41
2017-03-02T05:44:01.295Z,995.44
2017-03-02T05:45:11.629Z,995.39
2017-03-02T05:46:21.367Z,995.43
2017-03-02T05:47:30.684Z,995.48
2017-03-02T05:48:40.026Z,995.48
2017-03-02T05:49:49.776Z,995.54
2017-03-02T05:50:59.516Z,995.52
2017-03-02T05:52:08.466Z,995.55
2017-03-02T05:53:17.810Z,995.54
2017-03-02T05:54:27.548Z,995.55
2017-03-02T05:55:37.276Z,995.6
2017-03-02T05:56:46.763Z,995.62
2017-03-02T05:57:56.501Z,995.65
2017-03-02T05:59:07.046Z,995.59
2017-03-02T06:00:16.776Z,995.65
2017-03-02T06:01:26.531Z,995.67
2017-03-02T06:02:36.529Z,995.65
2017-03-02T06:03:46.668Z,995.62
2017-03-02T06:04:55.993Z,995.69
2017-03-02T06:06:06.245Z,995.72
2017-03-02T06:07:15.173Z,995.66
2017-03-02T06:08:25.066Z,995.77
2017-03-02T06:09:34.383Z,995.77
2017-03-02T06:10:44.114Z,995.8
2017-03-02T06:11:53.841Z,995.81
2017-03-02T06:13:02.806Z,995.85
2017-03-02T06:14:13.115Z,995.81
2017-03-02T06:15:23.301Z,995.8
2017-03-02T06:16:33.442Z,995.74
2017-03-02T06:17:42.780Z,995.78
2017-03-02T06:18:52.923Z,995.71
2017-03-02T06:20:02.415Z,995.68
2017-03-02T06:21:12.569Z,995.74
2017-03-02T06:22:22.317Z,995.72
2017-03-02T06:23:31.653Z,995.81
2017-03-02T06:24:41.401Z,995.77
2017-03-02T06:25:50.882Z,995.81
2017-03-02T06:27:00.623Z,995.85
2017-03-02T06:28:09.549Z,995.92
2017-03-02T06:29:18.868Z,995.91
2017-03-02T06:30:28.612Z,995.92
2017-03-02T06:31:38.498Z,995.91
2017-03-02T06:32:48.642Z,995.97
2017-03-02T06:33:57.970Z,996.04
2017-03-02T06:35:07.327Z,996.02
2017-03-02T06:36:16.650Z,996.01
2017-03-02T06:37:25.974Z,996.04
2017-03-02T06:38:35.317Z,996.06
2017-03-02T06:39:44.653Z,996.07
2017-03-02T06:40:53.977Z,996.06
2017-03-02T06:42:03.722Z,995.95
2017-03-02T06:43:13.974Z,996
2017-03-02T06:44:23.312Z,996.03
2017-03-02T06:45:32.229Z,996.11
2017-03-02T06:46:41.546Z,996.13
2017-03-02T06:47:51.681Z,996.18
2017-03-02T06:49:01.592Z,996.15
2017-03-02T06:50:12.154Z,996.17
2017-03-02T06:51:21.472Z,996.19
2017-03-02T06:52:30.435Z,996.15
2017-03-02T06:53:39.792Z,996.15
2017-03-02T06:54:48.742Z,996.12
2017-03-02T06:55:58.492Z,996.24
2017-03-02T06:57:07.836Z,996.23
2017-03-02T06:58:17.152Z,996.35
2017-03-02T06:59:27.287Z,996.31
2017-03-02T07:00:37.596Z,996.28
2017-03-02T07:01:47.328Z,996.32
2017-03-02T07:02:56.273Z,996.31
2017-03-02T07:04:06.431Z,996.35
2017-03-02T07:05:16.189Z,996.37
2017-03-02T07:06:26.480Z,996.4
2017-03-02T07:07:36.252Z,996.35
2017-03-02T07:08:45.575Z,996.38
2017-03-02T07:09:55.713Z,996.48
2017-03-02T07:11:05.055Z,996.45
2017-03-02T07:12:14.640Z,996.41
2017-03-02T07:13:24.391Z,996.45
2017-03-02T07:14:34.113Z,996.54
2017-03-02T07:15:43.865Z,996.5
2017-03-02T07:16:53.186Z,996.52
2017-03-02T07:18:02.969Z,996.47
2017-03-02T07:19:12.304Z,996.49
2017-03-02T07:20:22.030Z,996.54
2017-03-02T07:21:31.799Z,996.56
2017-03-02T07:22:41.192Z,996.57
2017-03-02T07:23:50.133Z,996.66
2017-03-02T07:24:59.858Z,996.67
2017-03-02T07:26:09.593Z,996.67
2017-03-02T07:27:19.742Z,996.73
2017-03-02T07:28:29.054Z,996.78
2017-03-02T07:29:39.057Z,996.83
2017-03-02T07:30:48.384Z,996.81
2017-03-02T07:31:57.324Z,996.84
2017-03-02T07:33:06.667Z,996.86
2017-03-02T07:34:16.403Z,996.85
2017-03-02T07:35:26.282Z,996.89
2017-03-02T07:36:36.425Z,996.91
2017-03-02T07:37:45.749Z,996.94
2017-03-02T07:38:55.491Z,996.96
2017-03-02T07:40:05.239Z,996.99
2017-03-02T07:41:15.145Z,997.05
2017-03-02T07:42:24.874Z,997.11
2017-03-02T07:43:35.430Z,997.1
2017-03-02T07:44:45.571Z,997.16
2017-03-02T07:45:55.293Z,997.17
2017-03-02T07:47:04.809Z,997.15
2017-03-02T07:48:14.958Z,997.14
2017-03-02T07:49:24.279Z,997.17
2017-03-02T07:50:34.407Z,997.15
2017-03-02T07:51:44.134Z,997.16
2017-03-02T07:52:54.836Z,997.18
2017-03-02T07:54:03.754Z,997.1
2017-03-02T07:55:12.692Z,997.18
2017-03-02T07:56:21.602Z,997.14
2017-03-02T07:57:31.328Z,997.15
2017-03-02T07:58:40.906Z,997.26
2017-03-02T07:59:49.862Z,997.16
2017-03-02T08:00:59.590Z,997.23
2017-03-02T08:02:08.510Z,997.36
2017-03-02T08:03:18.232Z,997.31
2017-03-02T08:04:27.811Z,997.33
2017-03-02T08:05:37.122Z,997.42
2017-03-02T08:06:46.849Z,997.42
2017-03-02T08:07:56.596Z,997.43
2017-03-02T08:09:05.947Z,997.48
2017-03-02T08:10:15.786Z,997.67
2017-03-02T08:11:25.514Z,997.56
2017-03-02T08:12:34.455Z,997.64
2017-03-02T08:13:44.206Z,997.65
2017-03-02T08:14:54.154Z,997.66
2017-03-02T08:16:03.472Z,997.8
2017-03-02T08:17:12.810Z,997.83
2017-03-02T08:18:21.734Z,997.81
2017-03-02T08:19:31.050Z,997.85
2017-03-02T08:20:40.379Z,997.76
2017-03-02T08:21:49.860Z,997.89
2017-03-02T08:22:59.592Z,997.79
2017-03-02T08:24:10.143Z,997.96
2017-03-02T08:25:19.870Z,998.01
2017-03-02T08:26:29.216Z,997.93
2017-03-02T08:27:38.307Z,998.15
2017-03-02T08:28:47.620Z,998.05
2017-03-02T08:29:56.946Z,998.13
2017-03-02T08:31:06.725Z,998.19
2017-03-02T08:32:16.876Z,998.17
2017-03-02T08:33:26.663Z,998.3
2017-03-02T08:34:36.799Z,998.34
2017-03-02T08:35:46.116Z,998.38
2017-03-02T08:36:55.860Z,998.41
2017-03-02T08:38:05.197Z,998.38
2017-03-02T08:39:14.980Z,998.45
2017-03-02T08:40:24.713Z,998.4
2017-03-02T08:41:34.439Z,998.44
2017-03-02T08:42:43.350Z,998.61
2017-03-02T08:43:53.083Z,998.56
2017-03-02T08:45:02.752Z,998.56
2017-03-02T08:46:12.478Z,998.56
2017-03-02T08:47:22.206Z,998.6
2017-03-02T08:48:31.541Z,998.65
2017-03-02T08:49:40.474Z,998.7
2017-03-02T08:50:49.673Z,998.73
2017-03-02T08:51:59.436Z,998.72
2017-03-02T08:53:08.753Z,998.76
2017-03-02T08:54:18.504Z,998.83
2017-03-02T08:55:28.233Z,998.84
2017-03-02T08:56:37.763Z,998.88
2017-03-02T08:57:47.514Z,998.94
2017-03-02T08:58:57.654Z,998.9
2017-03-02T09:00:06.566Z,999.01
2017-03-02T09:01:16.290Z,999.05
2017-03-02T09:02:26.171Z,999.09
2017-03-02T09:03:35.083Z,999.08
2017-03-02T09:04:44.811Z,999.14
2017-03-02T09:05:54.556Z,999.21
2017-03-02T09:07:04.291Z,999.29
2017-03-02T09:08:13.952Z,999.28
2017-03-02T09:09:23.680Z,999.24
2017-03-02T09:10:33.824Z,999.27
2017-03-02T09:11:42.742Z,999.4
2017-03-02T09:12:52.079Z,999.34
2017-03-02T09:14:01.246Z,999.37
2017-03-02T09:15:10.578Z,999.62
2017-03-02T09:16:20.303Z,999.48
2017-03-02T09:17:29.617Z,999.49
2017-03-02T09:18:39.376Z,999.55
2017-03-02T09:19:49.177Z,999.63
2017-03-02T09:20:58.906Z,999.47
2017-03-02T09:22:08.248Z,999.63
2017-03-02T09:23:17.970Z,999.78
2017-03-02T09:24:27.712Z,999.68
2017-03-02T09:25:37.200Z,999.76
2017-03-02T09:26:47.358Z,999.78
2017-03-02T09:27:56.681Z,999.86
2017-03-02T09:29:05.599Z,999.94
2017-03-02T09:30:15.336Z,999.92
2017-03-02T09:31:24.295Z,999.88
2017-03-02T09:32:34.028Z,999.95
2017-03-02T09:33:43.364Z,1000
2017-03-02T09:34:52.308Z,999.99
2017-03-02T09:36:02.446Z,1000.09
2017-03-02T09:37:11.652Z,1000.12
2017-03-02T09:38:20.970Z,1000.17
2017-03-02T09:39:29.885Z,1000.12
2017-03-02T09:40:39.201Z,1000.22
2017-03-02T09:41:48.551Z,1000.29
2017-03-02T09:42:57.968Z,1000.3
2017-03-02T09:44:08.125Z,1000.32
2017-03-02T09:45:17.440Z,1000.37
2017-03-02T09:46:26.773Z,1000.4
2017-03-02T09:47:36.526Z,1000.38
2017-03-02T09:48:45.950Z,1000.44
2017-03-02T09:49:54.881Z,1000.49
2017-03-02T09:51:04.216Z,1000.42
2017-03-02T09:52:13.137Z,1000.44
2017-03-02T09:53:22.076Z,1000.49
2017-03-02T09:54:32.360Z,1000.46
2017-03-02T09:55:41.716Z,1000.54
2017-03-02T09:56:50.623Z,1000.57
2017-03-02T09:58:00.353Z,1000.64
2017-03-02T09:59:09.678Z,1000.56
2017-03-02T10:00:19.425Z,1000.65
2017-03-02T10:01:28.741Z,1000.63
2017-03-02T10:02:38.058Z,1000.67
2017-03-02T10:03:47.393Z,1000.65
2017-03-02T10:04:56.717Z,1000.7
2017-03-02T10:06:06.960Z,1000.75
2017-03-02T10:07:16.706Z,1000.76
2017-03-02T10:08:26.043Z,1000.74
2017-03-02T10:09:35.763Z,1000.94
2017-03-02T10:10:44.674Z,1000.88
2017-03-02T10:11:53.868Z,1000.88
2017-03-02T10:13:03.192Z,1000.93
2017-03-02T10:14:12.514Z,1000.96
2017-03-02T10:15:21.854Z,1001.11
2017-03-02T10:16:31.594Z,1000.99
2017-03-02T10:17:41.382Z,1001.03
2017-03-02T10:18:50.724Z,1001.04
2017-03-02T10:20:00.068Z,1001.11
2017-03-02T10:21:09.395Z,1001.19
2017-03-02T10:22:18.710Z,1001.13
2017-03-02T10:23:28.045Z,1001.19
2017-03-02T10:24:36.961Z,1001.18
2017-03-02T10:25:46.299Z,1001.26
2017-03-02T10:26:56.051Z,1001.27
2017-03-02T10:28:04.970Z,1001.26
2017-03-02T10:29:14.049Z,1001.31
2017-03-02T10:30:23.378Z,1001.34
2017-03-02T10:31:33.113Z,1001.31
2017-03-02T10:32:42.446Z,1001.57
2017-03-02T10:33:51.766Z,1001.39
2017-03-02T10:35:01.074Z,1001.38
2017-03-02T10:36:10.397Z,1001.39
2017-03-02T10:37:19.728Z,1001.45
2017-03-02T10:38:29.045Z,1001.5
2017-03-02T10:39:38.790Z,1001.48
2017-03-02T10:40:48.540Z,1001.49
2017-03-02T10:41:57.864Z,1001.57
2017-03-02T10:43:07.598Z,1001.57
2017-03-02T10:44:16.942Z,1001.62
2017-03-02T10:45:26.262Z,1001.63
2017-03-02T10:46:35.803Z,1001.68
2017-03-02T10:47:45.130Z,1001.85
2017-03-02T10:48:55.265Z,1001.7
2017-03-02T10:50:05.416Z,1001.75
2017-03-02T10:51:15.154Z,1001.83
2017-03-02T10:52:24.623Z,1001.9
2017-03-02T10:53:34.357Z,1001.85
2017-03-02T10:54:44.083Z,1001.93
2017-03-02T10:55:53.006Z,1001.99
2017-03-02T10:57:02.758Z,1001.94
2017-03-02T10:58:12.664Z,1001.94
2017-03-02T10:59:22.403Z,1002.03
2017-03-02T11:00:31.738Z,1002.03
2017-03-02T11:01:41.473Z,1002.03
2017-03-02T11:02:50.799Z,1002.06
2017-03-02T11:04:00.770Z,1002.05
2017-03-02T11:05:10.908Z,1002.19
2017-03-02T11:06:21.053Z,1002.08
2017-03-02T11:07:30.802Z,1002.16
2017-03-02T11:08:40.125Z,1002.18
2017-03-02T11:09:49.494Z,1002.19
2017-03-02T11:10:59.648Z,1002.24
2017-03-02T11:12:08.993Z,1002.23
2017-03-02T11:13:18.314Z,1002.34
2017-03-02T11:14:28.455Z,1002.33
2017-03-02T11:15:38.253Z,1002.34
2017-03-02T11:16:47.589Z,1002.39
2017-03-02T11:17:56.903Z,1002.37
2017-03-02T11:19:06.653Z,1002.47
2017-03-02T11:20:15.569Z,1002.42
2017-03-02T11:21:25.456Z,1002.49
2017-03-02T11:22:34.785Z,1002.42
2017-03-02T11:23:44.512Z,1002.55
2017-03-02T11:24:53.830Z,1002.65
2017-03-02T11:26:03.975Z,1002.53
2017-03-02T11:27:13.959Z,1002.61
2017-03-02T11:28:23.686Z,1002.61
2017-03-02T11:29:33.456Z,1002.72
2017-03-02T11:30:42.795Z,1002.69
2017-03-02T11:31:52.105Z,1002.68
2017-03-02T11:33:02.105Z,1002.69
2017-03-02T11:34:11.431Z,1002.77
2017-03-02T11:35:21.162Z,1002.76
2017-03-02T11:36:30.508Z,1002.78
2017-03-02T11:37:39.833Z,1002.97
2017-03-02T11:38:49.739Z,1002.92
2017-03-02T11:39:59.066Z,1002.9
2017-03-02T11:41:08.786Z,1002.93
2017-03-02T11:42:18.116Z,1002.97
2017-03-02T11:43:27.025Z,1002.93
2017-03-02T11:44:36.548Z,1003.07
2017-03-02T11:45:45.875Z,1003.04
2017-03-02T11:46:55.195Z,1003.09
2017-03-02T11:48:04.925Z,1003.09
2017-03-02T11:49:14.656Z,1003.11
2017-03-02T11:50:23.725Z,1003.16
2017-03-02T11:51:33.884Z,1003.2
2017-03-02T11:52:43.210Z,1003.29
2017-03-02T11:53:52.537Z,1003.19
2017-03-02T11:55:02.703Z,1003.26
2017-03-02T11:56:12.211Z,1003.35
2017-03-02T11:57:21.137Z,1003.32
2017-03-02T11:58:30.897Z,1003.32
2017-03-02T11:59:40.635Z,1003.35
2017-03-02T12:00:49.966Z,1003.36
2017-03-02T12:01:59.853Z,1003.39
2017-03-02T12:03:09.611Z,1003.39
2017-03-02T12:04:19.076Z,1003.5
2017-03-02T12:05:28.394Z,1003.56
2017-03-02T12:06:37.717Z,1003.44
2017-03-02T12:07:47.547Z,1003.55
2017-03-02T12:08:56.893Z,1003.56
2017-03-02T12:10:07.090Z,1003.67
2017-03-02T12:11:16.416Z,1003.64
2017-03-02T12:12:25.750Z,1003.76
2017-03-02T12:13:35.226Z,1003.74
2017-03-02T12:14:44.982Z,1003.74
2017-03-02T12:15:54.732Z,1003.8
2017-03-02T12:17:04.482Z,1003.86
2017-03-02T12:18:13.798Z,1003.83
2017-03-02T12:19:22.791Z,1003.79
2017-03-02T12:20:32.109Z,1003.84
2017-03-02T12:21:41.836Z,1003.89
2017-03-02T12:22:50.775Z,1003.89
2017-03-02T12:24:00.134Z,1003.92
2017-03-02T12:25:09.616Z,1003.92
2017-03-02T12:26:18.525Z,1003.95
2017-03-02T12:27:28.291Z,1004.01
2017-03-02T12:28:38.025Z,1004.06
2017-03-02T12:29:47.793Z,1004.07
2017-03-02T12:30:57.685Z,1004.12
2017-03-02T12:32:06.598Z,1004.2
2017-03-02T12:33:16.343Z,1004.13
2017-03-02T12:34:25.682Z,1004.13
2017-03-02T12:35:35.533Z,1004.12
2017-03-02T12:36:45.089Z,1004.28
2017-03-02T12:37:54.489Z,1004.13
2017-03-02T12:39:03.839Z,1004.17
2017-03-02T12:40:12.768Z,1004.16
2017-03-02T12:41:22.902Z,1004.13
2017-03-02T12:42:31.815Z,1004.21
2017-03-02T12:43:41.550Z,1004.27
2017-03-02T12:44:50.910Z,1004.29
2017-03-02T12:46:00.250Z,1004.29
2017-03-02T12:47:09.174Z,1004.32
2017-03-02T12:48:18.246Z,1004.25
2017-03-02T12:49:27.983Z,1004.34
2017-03-02T12:50:36.895Z,1004.28
2017-03-02T12:51:46.636Z,1004.31
2017-03-02T12:52:55.965Z,1004.27
2017-03-02T12:54:05.438Z,1004.28
2017-03-02T12:55:15.210Z,1004.37
2017-03-02T12:56:24.998Z,1004.39
2017-03-02T12:57:35.197Z,1004.42
2017-03-02T12:58:44.610Z,1004.46
2017-03-02T12:59:54.492Z,1004.41
2017-03-02T13:01:03.407Z,1004.44
2017-03-02T13:02:12.743Z,1004.47
2017-03-02T13:03:22.070Z,1004.48
2017-03-02T13:04:31.402Z,1004.61
2017-03-02T13:05:40.958Z,1004.58
2017-03-02T13:06:50.700Z,1004.59
2017-03-02T13:07:59.624Z,1004.61
2017-03-02T13:09:09.757Z,1004.66
2017-03-02T13:10:19.134Z,1004.76
2017-03-02T13:11:28.042Z,1004.69
2017-03-02T13:12:36.955Z,1004.76
2017-03-02T13:13:46.681Z,1004.78
2017-03-02T13:14:56.001Z,1004.86
2017-03-02T13:16:04.934Z,1004.76
2017-03-02T13:17:15.302Z,1004.85
2017-03-02T13:18:24.634Z,1004.84
2017-03-02T13:19:34.684Z,1004.82
2017-03-02T13:20:44.063Z,1004.84
2017-03-02T13:21:53.395Z,1004.87
2017-03-02T13:23:03.853Z,1004.89
2017-03-02T13:24:12.765Z,1004.98
2017-03-02T13:25:21.693Z,1004.96
2017-03-02T13:26:31.044Z,1004.93
2017-03-02T13:27:39.963Z,1005.03
2017-03-02T13:28:49.109Z,1005.13
2017-03-02T13:29:58.016Z,1005.02
2017-03-02T13:31:07.365Z,1005.08
2017-03-02T13:32:17.128Z,1005.07
2017-03-02T13:33:26.499Z,1005.1
2017-03-02T13:34:35.543Z,1005.12
2017-03-02T13:35:45.268Z,1005.09
2017-03-02T13:36:54.626Z,1005.13
2017-03-02T13:38:03.950Z,1005.3
2017-03-02T13:39:13.271Z,1005.15
2017-03-02T13:40:22.768Z,1005.22
2017-03-02T13:41:31.699Z,1005.22
2017-03-02T13:42:40.620Z,1005.25
2017-03-02T13:43:49.586Z,1005.24
2017-03-02T13:44:58.525Z,1005.23
2017-03-02T13:46:07.690Z,1005.36
2017-03-02T13:47:17.445Z,1005.32
2017-03-02T13:48:26.374Z,1005.35
2017-03-02T13:49:35.701Z,1005.41
2017-03-02T13:50:45.430Z,1005.38
2017-03-02T13:51:55.167Z,1005.4
2017-03-02T13:53:04.088Z,1005.54
2017-03-02T13:54:13.007Z,1005.51
2017-03-02T13:55:21.940Z,1005.72
2017-03-02T13:56:31.673Z,1005.56
2017-03-02T13:57:41.588Z,1005.68
2017-03-02T13:58:50.932Z,1005.67
2017-03-02T14:00:01.075Z,1005.67
2017-03-02T14:01:10.434Z,1005.68
2017-03-02T14:02:19.346Z,1005.69
2017-03-02T14:03:29.351Z,1005.74
2017-03-02T14:04:39.102Z,1005.77
2017-03-02T14:05:48.010Z,1005.73
2017-03-02T14:06:57.343Z,1005.73
2017-03-02T14:08:06.675Z,1005.7
2017-03-02T14:09:16.970Z,1005.88
2017-03-02T14:10:25.883Z,1005.77
2017-03-02T14:11:36.049Z,1005.84
2017-03-02T14:12:45.372Z,1005.9
2017-03-02T14:13:55.098Z,1005.91
2017-03-02T14:15:04.621Z,1005.94
2017-03-02T14:16:13.557Z,1005.95
2017-03-02T14:17:23.292Z,1006
2017-03-02T14:18:32.220Z,1005.94
2017-03-02T14:19:41.600Z,1005.99
2017-03-02T14:20:50.675Z,1006.01